createdAt,value
2022-10-11T00:01:46.716Z,145.90
2022-10-11T00:04:13.375Z,135.55
2022-10-11T00:06:43.236Z,134.63
2022-10-11T00:09:16.080Z,142.57
2022-10-11T00:11:42.832Z,149.15
2022-10-11T00:14:09.557Z,134.23
2022-10-11T00:16:38.579Z,137.63
2022-10-11T00:19:05.186Z,149.98
2022-10-11T00:21:31.857Z,145.00
2022-10-11T00:23:58.563Z,139.05
2022-10-11T00:26:25.169Z,144.70
2022-10-11T00:28:52.815Z,142.27
2022-10-11T00:31:19.613Z,137.88
2022-10-11T00:33:46.692Z,142.60
2022-10-11T00:36:15.715Z,147.82
2022-10-11T00:38:43.010Z,136.30
2022-10-11T00:41:10.229Z,139.45
2022-10-11T00:43:37.169Z,138.20
2022-10-11T00:46:26.107Z,137.88
2022-10-11T00:49:18.389Z,150.05
2022-10-11T00:51:53.400Z,140.30
2022-10-11T00:54:24.147Z,137.43
2022-10-11T00:56:57.019Z,149.23
2022-10-11T00:59:28.346Z,135.32
2022-10-11T01:01:55.738Z,143.52
2022-10-11T01:04:22.506Z,141.60
2022-10-11T01:06:50.609Z,145.10
2022-10-11T01:09:19.547Z,147.13
2022-10-11T01:11:47.988Z,143.88
2022-10-11T01:14:36.078Z,145.95
2022-10-11T01:17:22.930Z,136.23
2022-10-11T01:20:02.710Z,142.52
2022-10-11T01:22:47.322Z,148.07
2022-10-11T01:25:32.810Z,139.40
2022-10-11T01:28:11.414Z,146.98
2022-10-11T01:30:38.891Z,137.60
2022-10-11T01:33:36.901Z,140.05
2022-10-11T01:36:27.828Z,137.48
2022-10-11T01:38:59.138Z,139.27
2022-10-11T01:41:30.958Z,143.63
2022-10-11T01:44:00.968Z,142.93
2022-10-11T01:46:29.499Z,138.93
2022-10-11T01:48:58.305Z,143.07
2022-10-11T01:51:30.417Z,148.20
2022-10-11T01:54:12.257Z,139.55
2022-10-11T01:57:16.566Z,145.18
2022-10-11T02:00:09.041Z,137.73
2022-10-11T02:02:56.757Z,138.30
2022-10-11T02:05:42.116Z,137.68
2022-10-11T02:08:23.970Z,135.32
2022-10-11T02:11:28.673Z,143.60
2022-10-11T02:14:15.480Z,141.73
2022-10-11T02:16:46.281Z,134.02
2022-10-11T02:19:18.680Z,145.40
2022-10-11T02:21:50.616Z,137.32
2022-10-11T02:24:22.589Z,133.68
2022-10-11T02:26:54.506Z,135.23
2022-10-11T02:29:24.585Z,138.82
2022-10-11T02:31:52.521Z,140.18
2022-10-11T02:34:24.848Z,136.65
2022-10-11T02:36:54.406Z,137.20
2022-10-11T02:39:29.622Z,141.60
2022-10-11T02:42:00.136Z,136.70
2022-10-11T02:44:32.432Z,143.13
2022-10-11T02:47:03.488Z,134.68
2022-10-11T02:49:31.974Z,137.10
2022-10-11T02:51:59.395Z,132.82
2022-10-11T02:54:27.103Z,133.95
2022-10-11T02:56:53.722Z,135.98
2022-10-11T02:59:20.343Z,141.25
2022-10-11T03:01:47.069Z,145.60
2022-10-11T03:04:14.195Z,139.52
2022-10-11T03:06:40.952Z,136.10
2022-10-11T03:09:07.561Z,141.85
2022-10-11T03:11:34.474Z,146.15
2022-10-11T03:14:01.066Z,136.93
2022-10-11T03:16:27.685Z,141.70
2022-10-11T03:18:54.287Z,134.55
2022-10-11T03:21:20.964Z,134.55
2022-10-11T03:23:47.550Z,136.50
2022-10-11T03:26:14.251Z,141.90
2022-10-11T03:28:40.995Z,146.07
2022-10-11T03:31:07.993Z,138.07
2022-10-11T03:33:34.625Z,135.48
2022-10-11T03:36:01.337Z,133.30
2022-10-11T03:38:28.385Z,132.27
2022-10-11T03:40:55.029Z,143.20
2022-10-11T03:43:21.575Z,137.50
2022-10-11T03:45:48.246Z,142.13
2022-10-11T03:48:14.856Z,138.18
2022-10-11T03:50:41.483Z,137.50
2022-10-11T03:53:08.141Z,146.20
2022-10-11T03:55:34.812Z,144.65
2022-10-11T03:58:01.430Z,137.43
2022-10-11T04:00:28.099Z,144.93
2022-10-11T04:02:54.800Z,137.63
2022-10-11T04:05:21.455Z,134.73
2022-10-11T04:07:48.316Z,133.05
2022-10-11T04:10:15.003Z,136.95
2022-10-11T04:12:41.698Z,134.18
2022-10-11T04:15:08.645Z,135.98
2022-10-11T04:17:35.226Z,136.60
2022-10-11T04:20:01.845Z,139.95
2022-10-11T04:22:28.534Z,136.35
2022-10-11T04:24:55.225Z,139.35
2022-10-11T04:27:22.173Z,131.93
2022-10-11T04:29:48.927Z,138.65
2022-10-11T04:32:15.583Z,140.20
2022-10-11T04:34:42.230Z,135.77
2022-10-11T04:37:08.850Z,133.18
2022-10-11T04:39:35.486Z,144.13
2022-10-11T04:42:02.173Z,135.63
2022-10-11T04:44:28.859Z,142.07
2022-10-11T04:46:55.725Z,144.63
2022-10-11T04:49:22.672Z,142.48
2022-10-11T04:51:49.398Z,138.75
2022-10-11T04:54:16.044Z,139.13
2022-10-11T04:56:42.699Z,137.35
2022-10-11T04:59:09.601Z,145.25
2022-10-11T05:01:36.353Z,137.10
2022-10-11T05:04:03.682Z,137.73
2022-10-11T05:06:30.300Z,143.25
2022-10-11T05:08:57.143Z,137.48
2022-10-11T05:11:23.773Z,140.45
2022-10-11T05:13:50.394Z,136.88
2022-10-11T05:16:17.524Z,132.13
2022-10-11T05:18:44.760Z,149.40
2022-10-11T05:21:20.901Z,140.45
2022-10-11T05:26:15.819Z,134.30
2022-10-11T05:28:42.845Z,135.95
2022-10-11T05:31:09.798Z,145.23
2022-10-11T05:33:36.918Z,135.48
2022-10-11T05:36:04.449Z,136.75
2022-10-11T05:38:31.356Z,144.10
2022-10-11T05:41:02.670Z,145.45
2022-10-11T05:43:29.856Z,136.10
2022-10-11T05:45:56.833Z,130.52
2022-10-11T05:48:24.204Z,136.98
2022-10-11T05:50:50.791Z,136.07
2022-10-11T05:53:17.552Z,133.45
2022-10-11T05:55:45.172Z,138.88
2022-10-11T05:58:14.115Z,134.50
2022-10-11T06:00:41.171Z,130.82
2022-10-11T06:03:10.982Z,135.38
2022-10-11T06:05:38.128Z,140.63
2022-10-11T06:08:06.132Z,143.18
2022-10-11T06:10:33.544Z,144.27
2022-10-11T06:13:00.791Z,142.07
2022-10-11T06:15:27.932Z,144.32
2022-10-11T06:17:54.606Z,136.77
2022-10-11T06:20:21.282Z,139.98
2022-10-11T06:22:47.935Z,136.60
2022-10-11T06:25:14.704Z,138.82
2022-10-11T06:27:41.397Z,139.02
2022-10-11T06:30:08.654Z,142.40
2022-10-11T06:32:35.306Z,149.60
2022-10-11T06:35:03.478Z,144.73
2022-10-11T06:37:30.418Z,148.95
2022-10-11T06:39:57.078Z,136.48
2022-10-11T06:42:23.769Z,148.38
2022-10-11T06:44:50.443Z,138.23
2022-10-11T06:47:17.119Z,137.75
2022-10-11T06:49:43.776Z,137.82
2022-10-11T06:52:10.455Z,148.15
2022-10-11T06:54:40.068Z,142.85
2022-10-11T06:57:10.148Z,142.20
2022-10-11T06:59:36.742Z,146.95
2022-10-11T07:02:03.466Z,141.63
2022-10-11T07:04:30.255Z,151.48
2022-10-11T07:06:56.951Z,143.90
2022-10-11T07:09:23.637Z,143.85
2022-10-11T07:11:50.284Z,143.45
2022-10-11T07:14:16.904Z,142.02
2022-10-11T07:16:43.523Z,150.73
2022-10-11T07:19:10.330Z,144.35
2022-10-11T07:21:37.160Z,149.30
2022-10-11T07:24:04.285Z,147.02
2022-10-11T07:26:36.794Z,147.35
2022-10-11T07:29:05.722Z,151.05
2022-10-11T07:31:32.507Z,145.60
2022-10-11T07:33:59.114Z,141.90
2022-10-11T07:36:26.139Z,144.80
2022-10-11T07:38:52.937Z,148.88
2022-10-11T07:41:20.093Z,154.82
2022-10-11T07:43:49.495Z,146.05
2022-10-11T07:46:19.560Z,150.65
2022-10-11T07:48:46.335Z,147.40
2022-10-11T07:51:21.106Z,149.63
2022-10-11T07:53:49.673Z,158.65
2022-10-11T07:56:19.562Z,148.82
2022-10-11T07:58:51.412Z,147.45
2022-10-11T08:01:18.657Z,148.85
2022-10-11T08:03:45.404Z,161.43
2022-10-11T08:06:14.892Z,151.13
2022-10-11T08:08:42.007Z,161.63
2022-10-11T08:11:09.045Z,153.00
2022-10-11T08:13:36.070Z,154.70
2022-10-11T08:16:10.020Z,154.23
2022-10-11T08:18:36.599Z,153.82
2022-10-11T08:21:11.336Z,157.38
2022-10-11T08:23:38.588Z,151.90
2022-10-11T08:26:06.631Z,150.68
2022-10-11T08:28:33.889Z,149.77
2022-10-11T08:31:01.152Z,152.15
2022-10-11T08:33:27.813Z,147.38
2022-10-11T08:35:55.160Z,146.02
2022-10-11T08:38:21.902Z,151.32
2022-10-11T08:40:52.141Z,151.77
2022-10-11T08:43:42.003Z,160.90
2022-10-11T08:46:10.548Z,149.07
2022-10-11T08:48:42.190Z,159.23
2022-10-11T08:51:34.074Z,157.85
2022-10-11T08:54:07.727Z,157.30
2022-10-11T08:56:39.985Z,155.57
2022-10-11T08:59:12.712Z,154.85
2022-10-11T09:02:21.282Z,155.98
2022-10-11T09:04:51.688Z,159.57
2022-10-11T09:07:36.224Z,153.80
2022-10-11T09:10:31.378Z,154.77
2022-10-11T09:13:41.668Z,157.40
2022-10-11T09:16:20.863Z,151.75
2022-10-11T09:19:11.784Z,155.02
2022-10-11T09:21:51.437Z,159.95
2022-10-11T09:24:36.077Z,155.82
2022-10-11T09:27:57.285Z,154.45
2022-10-11T09:30:18.559Z,161.45
2022-10-11T09:33:02.483Z,163.30
2022-10-11T09:35:32.614Z,161.30
2022-10-11T09:38:04.544Z,157.20
2022-10-11T09:40:59.155Z,157.93
2022-10-11T09:43:25.825Z,158.30
2022-10-11T09:45:52.426Z,158.90
2022-10-11T09:48:31.085Z,163.80
2022-10-11T09:51:11.369Z,164.23
2022-10-11T09:54:01.729Z,153.90
2022-10-11T09:56:30.789Z,153.75
2022-10-11T09:59:26.184Z,155.65
2022-10-11T10:02:18.056Z,156.43
2022-10-11T10:04:53.838Z,155.75
2022-10-11T10:09:50.760Z,161.27
2022-10-11T10:12:29.838Z,155.38
2022-10-11T10:15:02.632Z,155.50
2022-10-11T10:17:29.517Z,153.30
2022-10-11T10:20:00.200Z,154.98
2022-10-11T10:22:33.446Z,160.55
2022-10-11T10:25:07.835Z,154.75
2022-10-11T10:27:34.657Z,161.45
2022-10-11T10:30:07.551Z,153.10
2022-10-11T10:32:47.577Z,154.43
2022-10-11T10:35:27.385Z,162.60
2022-10-11T10:38:15.859Z,155.18
2022-10-11T10:40:49.532Z,154.80
2022-10-11T10:43:19.275Z,158.48
2022-10-11T10:46:03.515Z,157.60
2022-10-11T10:49:34.575Z,162.90
2022-10-11T10:51:52.710Z,164.80
2022-10-11T10:54:37.412Z,160.55
2022-10-11T10:57:18.232Z,154.50
2022-10-11T10:59:54.336Z,155.38
2022-10-11T11:02:40.455Z,154.65
2022-10-11T11:05:46.619Z,160.60
2022-10-11T11:08:39.830Z,153.95
2022-10-11T11:11:24.860Z,155.52
2022-10-11T11:14:23.758Z,158.90
2022-10-11T11:17:04.082Z,150.65
2022-10-11T11:19:44.891Z,155.25
2022-10-11T11:22:32.724Z,153.27
2022-10-11T11:25:44.551Z,154.68
2022-10-11T11:28:38.491Z,152.48
2022-10-11T11:31:25.037Z,154.88
2022-10-11T11:34:00.703Z,159.05
2022-10-11T11:39:21.119Z,163.63
2022-10-11T11:41:58.332Z,154.80
2022-10-11T11:44:42.618Z,157.40
2022-10-11T11:47:25.897Z,159.82
2022-10-11T11:50:03.032Z,156.07
2022-10-11T11:52:45.163Z,161.20
2022-10-11T11:55:23.069Z,162.65
2022-10-11T11:58:16.966Z,163.02
2022-10-11T12:01:07.240Z,160.02
2022-10-11T12:03:42.063Z,161.13
2022-10-11T12:06:14.858Z,153.65
2022-10-11T12:08:45.918Z,156.10
2022-10-11T12:11:28.527Z,163.10
2022-10-11T12:13:59.397Z,158.73
2022-10-11T12:16:27.364Z,161.52
2022-10-11T12:18:57.086Z,162.35
2022-10-11T12:21:43.424Z,158.98
2022-10-11T12:24:22.113Z,163.43
2022-10-11T12:26:58.124Z,164.02
2022-10-11T12:29:45.315Z,159.38
2022-10-11T12:32:34.448Z,163.13
2022-10-11T12:35:32.368Z,163.15
2022-10-11T12:38:33.976Z,156.00
2022-10-11T12:41:09.636Z,155.82
2022-10-11T12:46:28.886Z,157.30
2022-10-11T12:49:10.676Z,158.77
2022-10-11T12:52:19.356Z,158.05
2022-10-11T12:55:14.752Z,157.48
2022-10-11T12:58:07.588Z,162.77
2022-10-11T13:00:40.243Z,163.25
2022-10-11T13:03:35.331Z,163.82
2022-10-11T13:06:26.655Z,159.75
2022-10-11T13:08:59.339Z,158.45
2022-10-11T13:11:32.505Z,161.88
2022-10-11T13:14:07.936Z,158.38
2022-10-11T13:17:08.645Z,154.30
2022-10-11T13:19:38.149Z,162.80
2022-10-11T13:22:15.633Z,156.40
2022-10-11T13:24:42.610Z,162.02
2022-10-11T13:27:20.412Z,161.77
2022-10-11T13:29:48.952Z,159.70
2022-10-11T13:32:20.012Z,155.23
2022-10-11T13:34:50.084Z,157.40
2022-10-11T13:37:19.882Z,157.70
2022-10-11T13:39:48.648Z,158.43
2022-10-11T13:42:17.882Z,159.27
2022-10-11T13:44:46.506Z,155.82
2022-10-11T13:47:15.395Z,158.18
2022-10-11T13:50:01.542Z,156.52
2022-10-11T13:52:28.384Z,155.93
2022-10-11T13:55:09.976Z,159.45
2022-10-11T13:57:42.903Z,160.27
2022-10-11T14:00:24.670Z,158.60
2022-10-11T14:02:59.391Z,158.23
2022-10-11T14:05:40.190Z,156.13
2022-10-11T14:08:22.352Z,158.98
2022-10-11T14:10:55.655Z,151.85
2022-10-11T14:13:43.470Z,158.18
2022-10-11T14:16:34.681Z,157.32
2022-10-11T14:19:01.407Z,154.70
2022-10-11T14:21:45.860Z,157.57
2022-10-11T14:24:13.343Z,156.40
2022-10-11T14:26:45.892Z,159.10
2022-10-11T14:29:20.844Z,158.98
2022-10-11T14:31:47.622Z,157.53
2022-10-11T14:34:25.744Z,151.57
2022-10-11T14:36:53.615Z,155.30
2022-10-11T14:39:22.788Z,157.40
2022-10-11T14:41:51.046Z,156.45
2022-10-11T14:44:18.705Z,159.85
2022-10-11T14:46:46.435Z,157.27
2022-10-11T14:49:25.257Z,155.43
2022-10-11T14:51:53.405Z,160.80
2022-10-11T14:54:22.719Z,153.25
2022-10-11T14:56:55.169Z,155.40
2022-10-11T14:59:25.292Z,158.43
2022-10-11T15:01:53.997Z,154.73
2022-10-11T15:04:22.015Z,152.20
2022-10-11T15:06:49.114Z,159.35
2022-10-11T15:09:17.150Z,162.82
2022-10-11T15:11:43.856Z,157.30
2022-10-11T15:14:10.520Z,160.20
2022-10-11T15:16:37.350Z,160.43
2022-10-11T15:19:03.985Z,159.63
2022-10-11T15:21:30.786Z,157.65
2022-10-11T15:23:57.787Z,159.00
2022-10-11T15:26:27.658Z,162.20
2022-10-11T15:28:56.253Z,156.27
2022-10-11T15:31:23.447Z,162.32
2022-10-11T15:33:50.183Z,159.80
2022-10-11T15:36:20.116Z,163.85
2022-10-11T15:38:47.555Z,154.70
2022-10-11T15:41:16.938Z,163.60
2022-10-11T15:43:45.645Z,155.40
2022-10-11T15:46:15.169Z,162.65
2022-10-11T15:48:41.932Z,157.07
2022-10-11T15:51:08.696Z,154.73
2022-10-11T15:53:35.878Z,161.20
2022-10-11T15:56:06.026Z,155.27
2022-10-11T15:58:38.874Z,162.85
2022-10-11T16:01:13.321Z,153.77
2022-10-11T16:03:40.516Z,159.15
2022-10-11T16:06:07.841Z,158.68
2022-10-11T16:08:35.378Z,161.73
2022-10-11T16:11:03.264Z,159.52
2022-10-11T16:13:30.085Z,156.32
2022-10-11T16:15:56.817Z,160.45
2022-10-11T16:18:23.777Z,164.63
2022-10-11T16:20:53.631Z,156.75
2022-10-11T16:23:21.957Z,159.15
2022-10-11T16:26:03.506Z,157.93
2022-10-11T16:28:31.351Z,160.98
2022-10-11T16:30:58.123Z,159.10
2022-10-11T16:33:25.131Z,158.90
2022-10-11T16:35:51.821Z,163.70
2022-10-11T16:38:18.455Z,157.65
2022-10-11T16:40:45.141Z,159.38
2022-10-11T16:43:11.810Z,166.95
2022-10-11T16:45:38.462Z,165.43
2022-10-11T16:48:05.364Z,167.85
2022-10-11T16:50:36.886Z,168.43
2022-10-11T16:53:06.008Z,170.05
2022-10-11T16:55:32.669Z,168.38
2022-10-11T16:57:59.277Z,164.70
2022-10-11T17:00:25.995Z,162.88
2022-10-11T17:02:52.632Z,164.32
2022-10-11T17:05:19.239Z,165.00
2022-10-11T17:07:46.267Z,162.52
2022-10-11T17:10:13.310Z,161.40
2022-10-11T17:12:39.991Z,161.30
2022-10-11T17:15:11.110Z,162.77
2022-10-11T17:17:37.695Z,160.20
2022-10-11T17:20:04.767Z,156.85
2022-10-11T17:22:31.393Z,159.43
2022-10-11T17:24:58.000Z,158.93
2022-10-11T17:27:24.618Z,157.45
2022-10-11T17:29:51.359Z,161.65
2022-10-11T17:32:17.994Z,162.80
2022-10-11T17:34:44.687Z,159.82
2022-10-11T17:37:12.621Z,160.07
2022-10-11T17:39:39.296Z,164.27
2022-10-11T17:42:07.578Z,162.20
2022-10-11T17:44:35.926Z,157.18
2022-10-11T17:47:02.901Z,159.63
2022-10-11T17:49:29.563Z,166.00
2022-10-11T17:51:56.689Z,152.95
2022-10-11T17:54:23.464Z,155.65
2022-10-11T17:56:50.379Z,158.38
2022-10-11T17:59:21.311Z,152.65
2022-10-11T18:01:50.270Z,162.93
2022-10-11T18:04:19.116Z,159.02
2022-10-11T18:06:46.967Z,157.93
2022-10-11T18:09:15.653Z,155.02
2022-10-11T18:11:42.577Z,153.60
2022-10-11T18:14:09.732Z,163.18
2022-10-11T18:16:37.940Z,160.75
2022-10-11T18:19:07.315Z,169.57
2022-10-11T18:21:35.023Z,168.07
2022-10-11T18:24:04.170Z,171.70
2022-10-11T18:26:31.218Z,160.32
2022-10-11T18:28:58.891Z,164.85
2022-10-11T18:31:28.148Z,161.85
2022-10-11T18:33:55.721Z,156.82
2022-10-11T18:36:24.783Z,161.70
2022-10-11T18:38:56.959Z,167.88
2022-10-11T18:41:30.615Z,156.82
2022-10-11T18:44:00.043Z,160.85
2022-10-11T18:46:27.460Z,164.85
2022-10-11T18:48:55.962Z,158.85
2022-10-11T18:51:25.588Z,157.95
2022-10-11T18:53:53.312Z,161.13
2022-10-11T18:56:21.718Z,158.38
2022-10-11T18:58:50.176Z,156.05
2022-10-11T19:01:23.882Z,163.63
2022-10-11T19:03:52.969Z,163.80
2022-10-11T19:06:22.733Z,152.73
2022-10-11T19:08:51.876Z,159.43
2022-10-11T19:11:22.362Z,158.85
2022-10-11T19:13:58.853Z,157.18
2022-10-11T19:16:26.913Z,155.93
2022-10-11T19:18:54.048Z,152.55
2022-10-11T19:21:20.988Z,164.63
2022-10-11T19:23:49.236Z,150.73
2022-10-11T19:26:26.287Z,155.55
2022-10-11T19:28:59.154Z,151.60
2022-10-11T19:31:26.782Z,157.27
2022-10-11T19:33:53.861Z,152.82
2022-10-11T19:36:20.525Z,151.80
2022-10-11T19:38:49.753Z,157.45
2022-10-11T19:41:19.590Z,159.63
2022-10-11T19:43:46.871Z,155.98
2022-10-11T19:46:20.332Z,155.40
2022-10-11T19:48:54.251Z,152.63
2022-10-11T19:51:23.317Z,145.15
2022-10-11T19:53:58.736Z,155.18
2022-10-11T19:56:27.231Z,151.32
2022-10-11T19:58:54.423Z,153.65
2022-10-11T20:01:23.179Z,153.00
2022-10-11T20:03:53.163Z,157.52
2022-10-11T20:06:22.091Z,152.65
2022-10-11T20:08:59.849Z,154.18
2022-10-11T20:11:36.889Z,152.13
2022-10-11T20:14:03.677Z,149.55
2022-10-11T20:16:30.312Z,152.05
2022-10-11T20:18:59.267Z,146.85
2022-10-11T20:21:28.428Z,150.98
2022-10-11T20:23:59.636Z,151.95
2022-10-11T20:26:28.293Z,150.45
2022-10-11T20:28:56.604Z,156.93
2022-10-11T20:31:26.269Z,147.55
2022-10-11T20:33:56.332Z,151.05
2022-10-11T20:36:23.777Z,148.15
2022-10-11T20:38:50.817Z,147.10
2022-10-11T20:41:23.631Z,154.18
2022-10-11T20:43:53.551Z,147.90
2022-10-11T20:46:32.316Z,147.18
2022-10-11T20:49:02.103Z,144.82
2022-10-11T20:51:34.847Z,151.93
2022-10-11T20:54:04.002Z,154.60
2022-10-11T20:56:31.304Z,152.00
2022-10-11T20:58:58.302Z,148.05
2022-10-11T21:01:37.207Z,147.57
2022-10-11T21:04:05.157Z,148.82
2022-10-11T21:06:33.107Z,155.20
2022-10-11T21:09:00.519Z,160.18
2022-10-11T21:11:28.843Z,152.02
2022-10-11T21:13:56.680Z,152.68
2022-10-11T21:16:23.331Z,152.25
2022-10-11T21:18:51.988Z,149.77
2022-10-11T21:21:19.068Z,157.13
2022-10-11T21:23:45.897Z,148.30
2022-10-11T21:26:14.149Z,156.00
2022-10-11T21:28:41.374Z,148.13
2022-10-11T21:31:08.112Z,151.35
2022-10-11T21:33:35.772Z,156.73
2022-10-11T21:36:10.965Z,156.30
2022-10-11T21:38:37.986Z,157.25
2022-10-11T21:41:30.420Z,149.70
2022-10-11T21:43:57.779Z,155.13
2022-10-11T21:46:54.026Z,149.05
2022-10-11T21:49:16.970Z,148.68
2022-10-11T21:51:43.736Z,150.55
2022-10-11T21:54:10.568Z,152.07
2022-10-11T21:56:37.177Z,148.68
2022-10-11T21:59:06.562Z,148.95
2022-10-11T22:01:36.828Z,154.00
2022-10-11T22:04:04.933Z,149.00
2022-10-11T22:06:31.766Z,152.70
2022-10-11T22:08:58.348Z,149.52
2022-10-11T22:11:24.989Z,154.90
2022-10-11T22:13:51.608Z,156.38
2022-10-11T22:16:18.575Z,149.82
2022-10-11T22:18:45.207Z,158.98
2022-10-11T22:21:20.689Z,151.55
2022-10-11T22:23:49.381Z,152.63
2022-10-11T22:26:19.376Z,155.25
2022-10-11T22:28:48.979Z,156.80
2022-10-11T22:31:18.314Z,147.85
2022-10-11T22:36:18.898Z,149.13
2022-10-11T22:38:45.724Z,144.55
2022-10-11T22:41:13.050Z,146.48
2022-10-11T22:43:40.215Z,148.63
2022-10-11T22:46:07.502Z,147.98
2022-10-11T22:48:34.139Z,152.45
2022-10-11T22:51:00.905Z,150.18
2022-10-11T22:53:27.764Z,150.82
2022-10-11T22:55:54.400Z,150.15
2022-10-11T22:58:21.043Z,148.63
2022-10-11T23:00:47.655Z,149.52
2022-10-11T23:03:15.850Z,156.90
2022-10-11T23:05:43.018Z,153.93
2022-10-11T23:08:09.695Z,148.40
2022-10-11T23:10:40.463Z,146.50
2022-10-11T23:13:07.719Z,149.75
2022-10-11T23:15:34.322Z,152.98
2022-10-11T23:18:00.980Z,156.23
2022-10-11T23:20:27.698Z,150.48
2022-10-11T23:22:54.316Z,153.77
2022-10-11T23:25:21.041Z,158.93
2022-10-11T23:27:47.737Z,149.43
2022-10-11T23:30:14.617Z,156.27
2022-10-11T23:32:41.598Z,154.80
2022-10-11T23:35:08.526Z,149.63
2022-10-11T23:37:35.440Z,150.75
2022-10-11T23:40:02.320Z,147.43
2022-10-11T23:42:28.996Z,153.88
2022-10-11T23:44:55.577Z,154.95
2022-10-11T23:47:22.175Z,148.13
2022-10-11T23:49:48.817Z,152.80
2022-10-11T23:52:15.421Z,147.38
2022-10-11T23:54:42.028Z,152.30
2022-10-11T23:57:08.630Z,153.85
2022-10-11T23:59:35.276Z,152.93
